createdAt,value
2022-09-06T00:05:21.679Z,95989.00
2022-09-06T00:08:11.968Z,95982.47
2022-09-06T00:13:53.996Z,95983.09
2022-09-06T00:19:29.305Z,95980.91
2022-09-06T00:22:17.790Z,95994.30
2022-09-06T00:25:07.088Z,95990.17
2022-09-06T00:27:59.566Z,95987.42
2022-09-06T00:33:37.789Z,95991.36
2022-09-06T00:39:13.753Z,95996.09
2022-09-06T00:42:02.222Z,95993.91
2022-09-06T00:44:50.931Z,95996.30
2022-09-06T00:47:41.326Z,96002.98
2022-09-06T00:50:30.763Z,96000.42
2022-09-06T00:53:21.747Z,96004.55
2022-09-06T00:58:58.381Z,95996.88
2022-09-06T01:01:46.918Z,96001.00
2022-09-06T01:04:35.745Z,96002.00
2022-09-06T01:10:45.475Z,96006.56
2022-09-06T01:16:26.630Z,96011.30
2022-09-06T01:25:18.898Z,96000.28
2022-09-06T01:28:27.625Z,96017.21
2022-09-06T01:34:19.964Z,96010.73
2022-09-06T01:39:56.037Z,96007.78
2022-09-06T01:45:32.927Z,96007.78
2022-09-06T01:51:15.074Z,96023.74
2022-09-06T01:56:56.150Z,96027.11
2022-09-06T01:59:52.104Z,96031.20
2022-09-06T02:05:33.814Z,96027.78
2022-09-06T02:11:06.294Z,96021.50
2022-09-06T02:16:39.192Z,96015.02
2022-09-06T02:22:13.815Z,96024.27
2022-09-06T02:27:51.118Z,96030.19
2022-09-06T02:33:23.702Z,96012.63
2022-09-06T02:36:12.628Z,96020.31
2022-09-06T02:39:02.873Z,96025.98
2022-09-06T02:44:38.310Z,96010.84
2022-09-06T02:47:26.804Z,96011.05
2022-09-06T02:53:05.704Z,96006.77
2022-09-06T02:58:35.525Z,96010.89
2022-09-06T03:04:10.977Z,96006.57
2022-09-06T03:06:59.488Z,96009.33
2022-09-06T03:12:27.116Z,96005.80
2022-09-06T03:15:17.584Z,96003.81
2022-09-06T03:18:06.828Z,96010.53
2022-09-06T03:20:55.847Z,96006.40
2022-09-06T03:23:48.278Z,96002.83
2022-09-06T03:26:36.437Z,96009.52
2022-09-06T03:29:25.808Z,96001.45
2022-09-06T03:32:14.138Z,96015.23
2022-09-06T03:35:02.856Z,96017.59
2022-09-06T03:37:52.675Z,96020.53
2022-09-06T03:40:41.788Z,96014.81
2022-09-06T03:43:31.681Z,96011.66
2022-09-06T03:46:20.025Z,96010.88
2022-09-06T03:49:10.280Z,96018.73
2022-09-06T04:07:55.339Z,96002.36
2022-09-06T04:10:45.423Z,96002.69
2022-09-06T04:16:14.668Z,96002.28
2022-09-06T04:21:49.051Z,96006.22
2022-09-06T04:24:37.338Z,96011.30
2022-09-06T04:30:12.472Z,96004.08
2022-09-06T04:35:55.599Z,96020.41
2022-09-06T04:38:45.071Z,96021.37
2022-09-06T04:44:17.815Z,96018.45
2022-09-06T04:50:00.042Z,96015.86
2022-09-06T04:52:48.532Z,96017.42
2022-09-06T04:58:34.958Z,96007.58
2022-09-06T05:04:20.864Z,96010.23
2022-09-06T05:10:03.707Z,96019.42
2022-09-06T05:15:34.158Z,96031.03
2022-09-06T05:21:30.283Z,96029.47
2022-09-06T05:27:23.285Z,96041.23
2022-09-06T05:32:56.265Z,96047.20
2022-09-06T05:35:44.471Z,96046.18
2022-09-06T05:46:47.633Z,96048.55
2022-09-06T05:52:26.160Z,96043.05
2022-09-06T05:58:03.070Z,96044.92
2022-09-06T06:04:09.640Z,96050.56
2022-09-06T06:06:57.916Z,96056.31
2022-09-06T06:12:35.173Z,96071.50
2022-09-06T06:18:08.555Z,96065.38
2022-09-06T06:23:58.045Z,96062.63
2022-09-06T06:29:35.321Z,96061.45
2022-09-06T06:32:24.434Z,96059.27
2022-09-06T06:38:01.611Z,96060.26
2022-09-06T06:43:32.181Z,96065.19
2022-09-06T06:49:02.929Z,96072.77
2022-09-06T06:54:37.523Z,96070.36
2022-09-06T07:00:10.860Z,96059.64
2022-09-06T07:11:27.530Z,96044.30
2022-09-06T07:14:15.995Z,96036.95
2022-09-06T07:17:07.439Z,96038.86
2022-09-06T07:25:32.432Z,96054.45
2022-09-06T07:28:21.040Z,96062.49
2022-09-06T07:34:01.449Z,96042.78
2022-09-06T07:36:49.975Z,96035.84
2022-09-06T07:42:19.232Z,96058.00
2022-09-06T07:53:31.460Z,96067.16
2022-09-06T07:56:22.471Z,96071.55
2022-09-06T07:59:13.222Z,96077.11
2022-09-06T08:04:42.424Z,96094.56
2022-09-06T08:10:20.455Z,96127.63
2022-09-06T08:15:52.719Z,96131.22
2022-09-06T08:18:43.191Z,96132.32
2022-09-06T08:21:34.785Z,96136.50
2022-09-06T08:27:11.125Z,96138.05
2022-09-06T08:29:59.404Z,96134.93
2022-09-06T08:32:48.950Z,96137.47
2022-09-06T08:38:38.375Z,96134.23
2022-09-06T08:41:28.630Z,96138.11
2022-09-06T08:47:13.443Z,96143.52
2022-09-06T08:50:07.384Z,96140.34
2022-09-06T08:55:53.125Z,96104.59
2022-09-06T09:01:33.944Z,96097.30
2022-09-06T09:07:06.880Z,96094.38
2022-09-06T09:12:47.298Z,96104.05
2022-09-06T09:18:27.951Z,96100.27
2022-09-06T09:26:51.246Z,96105.32
2022-09-06T09:35:41.385Z,96099.80
2022-09-06T09:41:29.581Z,96097.17
2022-09-06T09:44:21.629Z,96099.52
2022-09-06T09:50:24.762Z,96082.63
2022-09-06T09:56:02.007Z,96078.11
2022-09-06T09:58:50.453Z,96073.56
2022-09-06T10:04:45.481Z,96085.47
2022-09-06T10:07:23.723Z,96086.70
2022-09-06T10:13:11.580Z,96067.95
2022-09-06T10:16:04.506Z,96065.83
2022-09-06T10:21:41.011Z,96057.31
2022-09-06T10:27:18.210Z,96038.37
2022-09-06T10:32:54.988Z,96030.31
2022-09-06T10:38:42.607Z,96023.00
2022-09-06T10:47:42.330Z,96030.66
2022-09-06T10:53:36.058Z,96022.86
2022-09-06T11:10:40.218Z,95999.39
2022-09-06T11:16:29.279Z,95983.65
2022-09-06T11:23:13.076Z,95983.48
2022-09-06T11:26:16.366Z,95983.48
2022-09-06T11:37:48.420Z,96001.59
2022-09-06T11:40:41.168Z,96007.55
2022-09-06T11:43:47.048Z,96010.73
2022-09-06T11:47:01.889Z,96020.70
2022-09-06T11:49:53.649Z,96006.34
2022-09-06T11:56:13.372Z,96017.11
2022-09-06T12:02:08.397Z,96028.11
2022-09-06T12:08:43.987Z,96049.51
2022-09-06T12:14:29.656Z,96073.83
2022-09-06T12:17:23.009Z,96100.20
2022-09-06T12:22:57.541Z,96100.61
2022-09-06T12:28:52.100Z,96111.66
2022-09-06T12:31:41.807Z,96106.22
2022-09-06T12:37:17.350Z,96093.77
2022-09-06T12:40:07.831Z,96088.70
2022-09-06T12:45:45.116Z,96086.54
2022-09-06T12:48:35.861Z,96075.84
2022-09-06T12:54:10.221Z,96046.27
2022-09-06T12:59:58.825Z,96002.36
2022-09-06T13:05:34.161Z,96025.20
2022-09-06T13:11:18.912Z,95985.20
2022-09-06T13:14:14.486Z,95987.70
2022-09-06T13:19:53.558Z,95988.64
2022-09-06T13:22:47.438Z,95992.34
2022-09-06T13:25:38.497Z,95992.36
2022-09-06T13:28:28.943Z,95984.73
2022-09-06T13:34:04.179Z,95962.11
2022-09-06T13:39:41.228Z,95939.37
2022-09-06T13:42:33.034Z,95947.42
2022-09-06T13:48:28.429Z,95939.45
2022-09-06T13:51:00.925Z,95935.11
2022-09-06T13:53:52.049Z,95936.63
2022-09-06T13:56:41.575Z,95932.70
2022-09-06T14:05:12.708Z,95906.82
2022-09-06T14:08:02.535Z,95911.23
2022-09-06T14:13:32.683Z,95916.08
2022-09-06T14:16:20.895Z,95918.83
2022-09-06T14:21:56.326Z,95929.52
2022-09-06T14:24:45.976Z,95937.06
2022-09-06T14:30:21.493Z,95934.73
2022-09-06T14:36:07.272Z,95938.75
2022-09-06T14:44:33.200Z,95934.67
2022-09-06T14:50:10.619Z,95939.84
2022-09-06T14:52:59.305Z,95928.89
2022-09-06T14:55:48.619Z,95902.85
2022-09-06T14:58:38.128Z,95899.91
2022-09-06T15:04:15.411Z,95917.08
2022-09-06T15:09:51.737Z,95895.94
2022-09-06T15:12:40.804Z,95899.63
2022-09-06T15:18:16.616Z,95893.03
2022-09-06T15:24:01.834Z,95896.80
2022-09-06T15:26:56.224Z,95894.40
2022-09-06T15:32:32.266Z,95885.98
2022-09-06T15:35:20.752Z,95885.98
2022-09-06T15:40:52.269Z,95862.31
2022-09-06T15:43:45.122Z,95860.93
2022-09-06T15:49:32.184Z,95850.48
2022-09-06T15:52:22.502Z,95852.20
2022-09-06T15:55:28.954Z,95851.16
2022-09-06T15:58:17.774Z,95852.14
2022-09-06T16:01:08.842Z,95845.72
2022-09-06T16:06:42.802Z,95839.16
2022-09-06T16:09:32.008Z,95833.34
2022-09-06T16:15:14.725Z,95826.05
2022-09-06T16:20:44.659Z,95818.72
2022-09-06T16:26:12.348Z,95819.82
2022-09-06T16:29:01.761Z,95826.27
2022-09-06T16:31:52.214Z,95822.96
2022-09-06T16:37:31.031Z,95823.84
2022-09-06T16:43:00.974Z,95823.50
2022-09-06T16:48:45.755Z,95819.19
2022-09-06T16:54:15.807Z,95811.94
2022-09-06T16:57:05.283Z,95811.78
2022-09-06T16:59:55.707Z,95809.06
2022-09-06T17:05:45.911Z,95798.89
2022-09-06T17:11:21.424Z,95779.36
2022-09-06T17:17:07.591Z,95787.45
2022-09-06T17:19:56.127Z,95784.88
2022-09-06T17:25:32.826Z,95773.86
2022-09-06T17:31:03.628Z,95777.83
2022-09-06T17:33:54.792Z,95777.55
2022-09-06T17:36:44.053Z,95769.34
2022-09-06T17:39:33.627Z,95762.50
2022-09-06T17:45:12.491Z,95752.55
2022-09-06T17:50:50.426Z,95749.05
2022-09-06T17:53:41.148Z,95745.39
2022-09-06T17:59:17.170Z,95737.03
2022-09-06T18:04:52.097Z,95747.56
2022-09-06T18:07:40.537Z,95755.23
2022-09-06T18:13:18.765Z,95751.16
2022-09-06T18:16:08.059Z,95747.29
2022-09-06T18:24:19.899Z,95732.78
2022-09-06T18:27:08.659Z,95734.59
2022-09-06T18:29:57.631Z,95738.14
2022-09-06T18:35:33.871Z,95757.24
2022-09-06T18:41:10.390Z,95762.56
2022-09-06T18:46:45.119Z,95766.88
2022-09-06T18:49:34.323Z,95768.27
2022-09-06T18:55:11.436Z,95766.88
2022-09-06T19:00:42.387Z,95771.41
2022-09-06T19:03:30.933Z,95767.89
2022-09-06T19:09:23.073Z,95774.77
2022-09-06T19:14:59.477Z,95776.73
2022-09-06T19:20:46.588Z,95775.56
2022-09-06T19:23:37.743Z,95779.09
2022-09-06T19:29:26.384Z,95781.08
2022-09-06T19:34:57.718Z,95784.43
2022-09-06T19:40:33.720Z,95779.89
2022-09-06T19:43:22.842Z,95786.61
2022-09-06T19:48:57.266Z,95775.98
2022-09-06T19:51:46.785Z,95788.58
2022-09-06T19:54:35.551Z,95787.41
2022-09-06T19:57:23.860Z,95796.84
2022-09-06T20:02:59.898Z,95806.88
2022-09-06T20:08:33.763Z,95785.83
2022-09-06T20:11:25.373Z,95790.74
2022-09-06T20:17:22.689Z,95807.05
2022-09-06T20:22:37.762Z,95816.89
2022-09-06T20:28:08.352Z,95805.10
2022-09-06T20:31:00.664Z,95817.27
2022-09-06T20:36:30.372Z,95811.98
2022-09-06T20:42:04.347Z,95781.50
2022-09-06T20:47:31.359Z,95777.36
2022-09-06T20:53:09.654Z,95798.80
2022-09-06T21:01:28.638Z,95821.99
2022-09-06T21:07:06.104Z,95837.53
2022-09-06T21:12:42.464Z,95842.06
2022-09-06T21:18:23.333Z,95835.38
2022-09-06T21:24:06.565Z,95826.49
2022-09-06T21:29:35.466Z,95819.17
2022-09-06T21:35:07.217Z,95790.48
2022-09-06T21:40:44.081Z,95784.06
2022-09-06T21:46:19.554Z,95782.30
2022-09-06T21:49:09.618Z,95787.01
2022-09-06T21:54:43.721Z,95810.60
2022-09-06T21:57:32.430Z,95803.91
2022-09-06T22:03:09.762Z,95808.64
2022-09-06T22:06:02.718Z,95811.60
2022-09-06T22:11:41.484Z,95825.17
2022-09-06T22:20:08.628Z,95827.90
2022-09-06T22:22:56.871Z,95819.46
2022-09-06T22:25:46.024Z,95817.66
2022-09-06T22:28:36.308Z,95822.59
2022-09-06T22:34:13.350Z,95815.14
2022-09-06T22:37:02.349Z,95819.04
2022-09-06T22:42:32.909Z,95822.94
2022-09-06T22:45:22.840Z,95823.87
2022-09-06T22:50:58.578Z,95828.40
2022-09-06T22:53:48.609Z,95831.34
2022-09-06T22:59:24.283Z,95824.27
2022-09-06T23:05:04.194Z,95810.31
2022-09-06T23:07:52.945Z,95813.26
2022-09-06T23:10:43.314Z,95814.80
2022-09-06T23:16:28.818Z,95821.09
2022-09-06T23:22:05.400Z,95817.55
2022-09-06T23:24:54.126Z,95813.01
2022-09-06T23:30:24.201Z,95797.52
2022-09-06T23:35:55.418Z,95787.67
2022-09-06T23:41:34.262Z,95780.81
2022-09-06T23:44:22.885Z,95778.63
2022-09-06T23:47:11.921Z,95766.85
2022-09-06T23:52:45.719Z,95779.63
2022-09-06T23:58:30.264Z,95780.20
